sensor_id;sensor_type;location;lat;lon;timestamp;P1;durP1;ratioP1;P2;durP2;ratioP2
31724;SDS011;18306;40.960;14.836;2022-11-02T00:00:35;11.13;;;7.97;;
31724;SDS011;18306;40.960;14.836;2022-11-02T00:03:05;16.45;;;8.68;;
31724;SDS011;18306;40.960;14.836;2022-11-02T00:05:32;18.48;;;10.80;;
31724;SDS011;18306;40.960;14.836;2022-11-02T00:07:59;17.38;;;9.82;;
31724;SDS011;18306;40.960;14.836;2022-11-02T00:10:26;25.55;;;11.48;;
31724;SDS011;18306;40.960;14.836;2022-11-02T00:12:55;15.70;;;8.32;;
31724;SDS011;18306;40.960;14.836;2022-11-02T00:15:26;23.10;;;9.43;;
31724;SDS011;18306;40.960;14.836;2022-11-02T00:17:55;14.43;;;8.52;;
31724;SDS011;18306;40.960;14.836;2022-11-02T00:20:28;22.65;;;10.20;;
31724;SDS011;18306;40.960;14.836;2022-11-02T00:22:56;15.88;;;8.82;;
31724;SDS011;18306;40.960;14.836;2022-11-02T00:25:25;16.08;;;9.52;;
31724;SDS011;18306;40.960;14.836;2022-11-02T00:27:53;14.98;;;8.23;;
31724;SDS011;18306;40.960;14.836;2022-11-02T00:30:20;18.92;;;9.40;;
31724;SDS011;18306;40.960;14.836;2022-11-02T00:32:47;11.05;;;8.60;;
31724;SDS011;18306;40.960;14.836;2022-11-02T00:35:15;14.65;;;9.63;;
31724;SDS011;18306;40.960;14.836;2022-11-02T00:37:42;24.20;;;9.73;;
31724;SDS011;18306;40.960;14.836;2022-11-02T00:40:09;11.45;;;7.45;;
31724;SDS011;18306;40.960;14.836;2022-11-02T00:42:37;16.98;;;8.77;;
31724;SDS011;18306;40.960;14.836;2022-11-02T00:45:04;17.63;;;8.52;;
31724;SDS011;18306;40.960;14.836;2022-11-02T00:47:32;26.80;;;9.95;;
31724;SDS011;18306;40.960;14.836;2022-11-02T00:50:00;20.83;;;9.35;;
31724;SDS011;18306;40.960;14.836;2022-11-02T00:52:27;20.75;;;10.38;;
31724;SDS011;18306;40.960;14.836;2022-11-02T00:54:54;19.98;;;8.88;;
31724;SDS011;18306;40.960;14.836;2022-11-02T00:57:21;15.70;;;8.80;;
31724;SDS011;18306;40.960;14.836;2022-11-02T00:59:48;18.35;;;8.30;;
31724;SDS011;18306;40.960;14.836;2022-11-02T01:02:16;16.88;;;8.50;;
31724;SDS011;18306;40.960;14.836;2022-11-02T01:04:43;18.20;;;9.63;;
31724;SDS011;18306;40.960;14.836;2022-11-02T01:07:10;12.95;;;8.45;;
31724;SDS011;18306;40.960;14.836;2022-11-02T01:09:37;13.98;;;8.88;;
31724;SDS011;18306;40.960;14.836;2022-11-02T01:12:04;16.73;;;8.95;;
31724;SDS011;18306;40.960;14.836;2022-11-02T01:14:31;12.70;;;7.47;;
31724;SDS011;18306;40.960;14.836;2022-11-02T01:16:58;21.85;;;8.93;;
31724;SDS011;18306;40.960;14.836;2022-11-02T01:19:25;16.30;;;9.13;;
31724;SDS011;18306;40.960;14.836;2022-11-02T01:21:52;13.18;;;7.30;;
31724;SDS011;18306;40.960;14.836;2022-11-02T01:24:20;14.07;;;7.88;;
31724;SDS011;18306;40.960;14.836;2022-11-02T01:26:50;19.40;;;7.80;;
31724;SDS011;18306;40.960;14.836;2022-11-02T01:29:18;21.00;;;7.70;;
31724;SDS011;18306;40.960;14.836;2022-11-02T01:31:45;12.15;;;7.65;;
31724;SDS011;18306;40.960;14.836;2022-11-02T01:34:14;14.60;;;8.05;;
31724;SDS011;18306;40.960;14.836;2022-11-02T01:36:43;13.45;;;6.80;;
31724;SDS011;18306;40.960;14.836;2022-11-02T01:39:12;11.13;;;6.38;;
31724;SDS011;18306;40.960;14.836;2022-11-02T01:41:42;9.63;;;7.15;;
31724;SDS011;18306;40.960;14.836;2022-11-02T01:47:03;8.75;;;6.32;;
31724;SDS011;18306;40.960;14.836;2022-11-02T01:49:34;13.18;;;7.03;;
31724;SDS011;18306;40.960;14.836;2022-11-02T01:52:21;15.27;;;6.90;;
31724;SDS011;18306;40.960;14.836;2022-11-02T01:57:30;12.38;;;7.80;;
31724;SDS011;18306;40.960;14.836;2022-11-02T02:05:32;13.80;;;7.40;;
31724;SDS011;18306;40.960;14.836;2022-11-02T02:08:04;8.85;;;7.38;;
31724;SDS011;18306;40.960;14.836;2022-11-02T02:10:34;11.48;;;6.80;;
31724;SDS011;18306;40.960;14.836;2022-11-02T02:13:04;14.00;;;7.03;;
31724;SDS011;18306;40.960;14.836;2022-11-02T02:18:19;25.17;;;9.27;;
31724;SDS011;18306;40.960;14.836;2022-11-02T02:29:20;14.65;;;7.70;;
31724;SDS011;18306;40.960;14.836;2022-11-02T02:34:25;9.05;;;6.72;;
31724;SDS011;18306;40.960;14.836;2022-11-02T02:37:20;10.57;;;6.32;;
31724;SDS011;18306;40.960;14.836;2022-11-02T02:41:00;10.60;;;6.50;;
31724;SDS011;18306;40.960;14.836;2022-11-02T02:43:58;10.23;;;5.93;;
31724;SDS011;18306;40.960;14.836;2022-11-02T02:46:51;13.30;;;7.80;;
31724;SDS011;18306;40.960;14.836;2022-11-02T02:50:16;14.02;;;7.55;;
31724;SDS011;18306;40.960;14.836;2022-11-02T02:52:34;17.98;;;6.88;;
31724;SDS011;18306;40.960;14.836;2022-11-02T02:55:04;9.80;;;6.05;;
31724;SDS011;18306;40.960;14.836;2022-11-02T02:57:33;14.90;;;5.63;;
31724;SDS011;18306;40.960;14.836;2022-11-02T03:00:01;13.77;;;6.72;;
31724;SDS011;18306;40.960;14.836;2022-11-02T03:02:33;16.17;;;6.97;;
31724;SDS011;18306;40.960;14.836;2022-11-02T03:05:20;11.90;;;6.95;;
31724;SDS011;18306;40.960;14.836;2022-11-02T03:07:51;26.02;;;8.57;;
31724;SDS011;18306;40.960;14.836;2022-11-02T03:10:27;11.68;;;8.32;;
31724;SDS011;18306;40.960;14.836;2022-11-02T03:15:49;13.88;;;8.60;;
31724;SDS011;18306;40.960;14.836;2022-11-02T03:21:23;11.85;;;6.97;;
31724;SDS011;18306;40.960;14.836;2022-11-02T03:24:03;11.68;;;7.50;;
31724;SDS011;18306;40.960;14.836;2022-11-02T03:32:45;13.48;;;6.35;;
31724;SDS011;18306;40.960;14.836;2022-11-02T03:35:26;8.82;;;6.60;;
31724;SDS011;18306;40.960;14.836;2022-11-02T03:38:03;10.27;;;5.45;;
31724;SDS011;18306;40.960;14.836;2022-11-02T03:40:46;17.17;;;6.68;;
31724;SDS011;18306;40.960;14.836;2022-11-02T03:43:15;13.23;;;6.50;;
31724;SDS011;18306;40.960;14.836;2022-11-02T03:45:49;14.80;;;7.55;;
31724;SDS011;18306;40.960;14.836;2022-11-02T03:48:19;25.98;;;7.05;;
31724;SDS011;18306;40.960;14.836;2022-11-02T03:50:50;16.05;;;8.95;;
31724;SDS011;18306;40.960;14.836;2022-11-02T03:53:29;12.80;;;7.57;;
31724;SDS011;18306;40.960;14.836;2022-11-02T03:56:18;15.07;;;7.20;;
31724;SDS011;18306;40.960;14.836;2022-11-02T03:59:07;10.85;;;7.30;;
31724;SDS011;18306;40.960;14.836;2022-11-02T04:01:38;11.60;;;7.05;;
31724;SDS011;18306;40.960;14.836;2022-11-02T04:04:10;11.55;;;6.75;;
31724;SDS011;18306;40.960;14.836;2022-11-02T04:06:39;11.10;;;6.95;;
31724;SDS011;18306;40.960;14.836;2022-11-02T04:09:08;6.78;;;5.95;;
31724;SDS011;18306;40.960;14.836;2022-11-02T04:11:37;9.68;;;6.38;;
31724;SDS011;18306;40.960;14.836;2022-11-02T04:14:23;8.57;;;6.22;;
31724;SDS011;18306;40.960;14.836;2022-11-02T04:17:15;10.00;;;7.22;;
31724;SDS011;18306;40.960;14.836;2022-11-02T04:20:05;7.10;;;5.15;;
31724;SDS011;18306;40.960;14.836;2022-11-02T04:22:33;9.35;;;6.72;;
31724;SDS011;18306;40.960;14.836;2022-11-02T04:25:18;14.50;;;8.30;;
31724;SDS011;18306;40.960;14.836;2022-11-02T04:28:14;12.68;;;7.00;;
31724;SDS011;18306;40.960;14.836;2022-11-02T04:30:57;13.70;;;6.88;;
31724;SDS011;18306;40.960;14.836;2022-11-02T04:33:29;10.15;;;7.40;;
31724;SDS011;18306;40.960;14.836;2022-11-02T04:36:05;18.02;;;7.65;;
31724;SDS011;18306;40.960;14.836;2022-11-02T04:38:33;14.30;;;7.13;;
31724;SDS011;18306;40.960;14.836;2022-11-02T04:41:16;8.55;;;6.72;;
31724;SDS011;18306;40.960;14.836;2022-11-02T04:44:06;9.43;;;7.50;;
31724;SDS011;18306;40.960;14.836;2022-11-02T04:46:37;13.75;;;7.47;;
31724;SDS011;18306;40.960;14.836;2022-11-02T04:49:07;15.70;;;7.13;;
31724;SDS011;18306;40.960;14.836;2022-11-02T04:51:36;9.15;;;6.47;;
31724;SDS011;18306;40.960;14.836;2022-11-02T04:54:06;17.30;;;7.55;;
31724;SDS011;18306;40.960;14.836;2022-11-02T04:56:33;8.45;;;6.38;;
31724;SDS011;18306;40.960;14.836;2022-11-02T04:59:01;11.02;;;6.28;;
31724;SDS011;18306;40.960;14.836;2022-11-02T05:01:30;11.23;;;6.45;;
31724;SDS011;18306;40.960;14.836;2022-11-02T05:03:59;15.48;;;7.68;;
31724;SDS011;18306;40.960;14.836;2022-11-02T05:06:29;14.45;;;7.32;;
31724;SDS011;18306;40.960;14.836;2022-11-02T05:08:56;16.83;;;7.63;;
31724;SDS011;18306;40.960;14.836;2022-11-02T05:11:25;10.38;;;6.13;;
31724;SDS011;18306;40.960;14.836;2022-11-02T05:13:52;11.73;;;6.63;;
31724;SDS011;18306;40.960;14.836;2022-11-02T05:16:19;12.45;;;6.45;;
31724;SDS011;18306;40.960;14.836;2022-11-02T05:18:49;10.75;;;6.93;;
31724;SDS011;18306;40.960;14.836;2022-11-02T05:21:18;10.15;;;6.30;;
31724;SDS011;18306;40.960;14.836;2022-11-02T05:23:47;12.35;;;6.60;;
31724;SDS011;18306;40.960;14.836;2022-11-02T05:26:14;8.73;;;6.15;;
31724;SDS011;18306;40.960;14.836;2022-11-02T05:28:45;10.55;;;6.72;;
31724;SDS011;18306;40.960;14.836;2022-11-02T05:31:12;9.43;;;6.60;;
31724;SDS011;18306;40.960;14.836;2022-11-02T05:33:42;9.63;;;6.00;;
31724;SDS011;18306;40.960;14.836;2022-11-02T05:36:13;15.25;;;5.95;;
31724;SDS011;18306;40.960;14.836;2022-11-02T05:38:45;13.35;;;6.00;;
31724;SDS011;18306;40.960;14.836;2022-11-02T05:41:12;14.02;;;6.47;;
31724;SDS011;18306;40.960;14.836;2022-11-02T05:43:40;17.02;;;7.45;;
31724;SDS011;18306;40.960;14.836;2022-11-02T05:46:10;8.80;;;6.32;;
31724;SDS011;18306;40.960;14.836;2022-11-02T05:48:40;15.35;;;7.38;;
31724;SDS011;18306;40.960;14.836;2022-11-02T05:51:08;22.95;;;6.35;;
31724;SDS011;18306;40.960;14.836;2022-11-02T05:53:36;11.63;;;5.53;;
31724;SDS011;18306;40.960;14.836;2022-11-02T05:56:05;11.43;;;6.40;;
31724;SDS011;18306;40.960;14.836;2022-11-02T05:58:33;9.90;;;5.88;;
31724;SDS011;18306;40.960;14.836;2022-11-02T06:01:00;15.07;;;6.90;;
31724;SDS011;18306;40.960;14.836;2022-11-02T06:03:30;20.02;;;6.85;;
31724;SDS011;18306;40.960;14.836;2022-11-02T06:06:01;11.43;;;6.28;;
31724;SDS011;18306;40.960;14.836;2022-11-02T06:08:30;17.05;;;7.70;;
31724;SDS011;18306;40.960;14.836;2022-11-02T06:11:05;13.00;;;8.27;;
31724;SDS011;18306;40.960;14.836;2022-11-02T06:13:39;15.95;;;6.50;;
31724;SDS011;18306;40.960;14.836;2022-11-02T06:16:07;12.25;;;6.57;;
31724;SDS011;18306;40.960;14.836;2022-11-02T06:18:36;12.43;;;6.78;;
31724;SDS011;18306;40.960;14.836;2022-11-02T06:21:04;8.95;;;5.80;;
31724;SDS011;18306;40.960;14.836;2022-11-02T06:23:31;17.25;;;7.05;;
31724;SDS011;18306;40.960;14.836;2022-11-02T06:25:59;6.38;;;5.60;;
31724;SDS011;18306;40.960;14.836;2022-11-02T06:28:27;12.13;;;7.38;;
31724;SDS011;18306;40.960;14.836;2022-11-02T06:30:56;6.47;;;5.75;;
31724;SDS011;18306;40.960;14.836;2022-11-02T06:33:23;9.20;;;6.30;;
31724;SDS011;18306;40.960;14.836;2022-11-02T06:35:51;11.32;;;6.38;;
31724;SDS011;18306;40.960;14.836;2022-11-02T06:38:19;11.93;;;6.60;;
31724;SDS011;18306;40.960;14.836;2022-11-02T06:40:55;12.60;;;6.10;;
31724;SDS011;18306;40.960;14.836;2022-11-02T06:43:24;7.85;;;5.85;;
31724;SDS011;18306;40.960;14.836;2022-11-02T06:45:55;9.43;;;7.25;;
31724;SDS011;18306;40.960;14.836;2022-11-02T06:48:24;11.60;;;7.35;;
31724;SDS011;18306;40.960;14.836;2022-11-02T06:50:52;15.65;;;7.50;;
31724;SDS011;18306;40.960;14.836;2022-11-02T06:53:19;11.63;;;7.20;;
31724;SDS011;18306;40.960;14.836;2022-11-02T06:55:52;13.90;;;7.13;;
31724;SDS011;18306;40.960;14.836;2022-11-02T07:00:56;10.77;;;7.10;;
31724;SDS011;18306;40.960;14.836;2022-11-02T07:03:24;12.52;;;5.45;;
31724;SDS011;18306;40.960;14.836;2022-11-02T07:05:51;8.85;;;6.40;;
31724;SDS011;18306;40.960;14.836;2022-11-02T07:08:19;8.40;;;6.10;;
31724;SDS011;18306;40.960;14.836;2022-11-02T07:10:47;11.55;;;7.00;;
31724;SDS011;18306;40.960;14.836;2022-11-02T07:13:14;15.25;;;7.35;;
31724;SDS011;18306;40.960;14.836;2022-11-02T07:15:41;20.77;;;7.43;;
31724;SDS011;18306;40.960;14.836;2022-11-02T07:18:09;16.15;;;7.63;;
31724;SDS011;18306;40.960;14.836;2022-11-02T07:20:38;20.60;;;7.18;;
31724;SDS011;18306;40.960;14.836;2022-11-02T07:23:05;16.17;;;6.70;;
31724;SDS011;18306;40.960;14.836;2022-11-02T07:25:34;11.10;;;6.55;;
31724;SDS011;18306;40.960;14.836;2022-11-02T07:28:01;14.65;;;6.60;;
31724;SDS011;18306;40.960;14.836;2022-11-02T07:30:37;8.60;;;6.68;;
31724;SDS011;18306;40.960;14.836;2022-11-02T07:33:04;9.27;;;6.47;;
31724;SDS011;18306;40.960;14.836;2022-11-02T07:35:31;30.70;;;6.80;;
31724;SDS011;18306;40.960;14.836;2022-11-02T07:38:00;22.50;;;7.53;;
31724;SDS011;18306;40.960;14.836;2022-11-02T07:40:29;24.67;;;7.43;;
31724;SDS011;18306;40.960;14.836;2022-11-02T07:42:57;28.15;;;9.25;;
31724;SDS011;18306;40.960;14.836;2022-11-02T07:45:44;15.23;;;7.65;;
31724;SDS011;18306;40.960;14.836;2022-11-02T07:48:11;12.38;;;6.20;;
31724;SDS011;18306;40.960;14.836;2022-11-02T07:50:38;14.70;;;6.60;;
31724;SDS011;18306;40.960;14.836;2022-11-02T07:53:05;14.70;;;6.60;;
31724;SDS011;18306;40.960;14.836;2022-11-02T07:55:32;20.92;;;6.55;;
31724;SDS011;18306;40.960;14.836;2022-11-02T07:58:04;16.30;;;6.20;;
31724;SDS011;18306;40.960;14.836;2022-11-02T08:00:35;9.35;;;7.18;;
31724;SDS011;18306;40.960;14.836;2022-11-02T08:03:04;20.13;;;7.50;;
31724;SDS011;18306;40.960;14.836;2022-11-02T08:05:33;30.00;;;8.88;;
31724;SDS011;18306;40.960;14.836;2022-11-02T08:08:06;15.77;;;8.07;;
31724;SDS011;18306;40.960;14.836;2022-11-02T08:10:37;11.38;;;6.72;;
31724;SDS011;18306;40.960;14.836;2022-11-02T08:13:04;20.60;;;7.90;;
31724;SDS011;18306;40.960;14.836;2022-11-02T08:15:31;21.30;;;7.55;;
31724;SDS011;18306;40.960;14.836;2022-11-02T08:18:04;23.10;;;6.95;;
31724;SDS011;18306;40.960;14.836;2022-11-02T08:20:35;10.13;;;5.72;;
31724;SDS011;18306;40.960;14.836;2022-11-02T08:23:02;12.32;;;6.75;;
31724;SDS011;18306;40.960;14.836;2022-11-02T08:25:30;13.80;;;5.47;;
31724;SDS011;18306;40.960;14.836;2022-11-02T08:27:58;16.42;;;6.25;;
31724;SDS011;18306;40.960;14.836;2022-11-02T08:30:27;12.65;;;5.25;;
31724;SDS011;18306;40.960;14.836;2022-11-02T08:33:00;16.42;;;7.72;;
31724;SDS011;18306;40.960;14.836;2022-11-02T08:35:31;20.05;;;6.65;;
31724;SDS011;18306;40.960;14.836;2022-11-02T08:38:01;12.73;;;5.55;;
31724;SDS011;18306;40.960;14.836;2022-11-02T08:40:29;7.57;;;5.60;;
31724;SDS011;18306;40.960;14.836;2022-11-02T08:42:57;21.88;;;5.80;;
31724;SDS011;18306;40.960;14.836;2022-11-02T08:45:26;12.32;;;5.53;;
31724;SDS011;18306;40.960;14.836;2022-11-02T08:47:53;19.42;;;6.03;;
31724;SDS011;18306;40.960;14.836;2022-11-02T08:50:21;11.25;;;5.63;;
31724;SDS011;18306;40.960;14.836;2022-11-02T08:52:49;18.17;;;5.50;;
31724;SDS011;18306;40.960;14.836;2022-11-02T08:55:16;7.65;;;3.97;;
31724;SDS011;18306;40.960;14.836;2022-11-02T08:57:46;21.63;;;5.90;;
31724;SDS011;18306;40.960;14.836;2022-11-02T09:00:18;7.35;;;4.05;;
31724;SDS011;18306;40.960;14.836;2022-11-02T09:03:00;8.07;;;4.32;;
31724;SDS011;18306;40.960;14.836;2022-11-02T09:05:30;5.85;;;4.80;;
31724;SDS011;18306;40.960;14.836;2022-11-02T09:07:59;8.30;;;3.92;;
31724;SDS011;18306;40.960;14.836;2022-11-02T09:10:28;9.98;;;3.47;;
31724;SDS011;18306;40.960;14.836;2022-11-02T09:13:00;4.75;;;2.88;;
31724;SDS011;18306;40.960;14.836;2022-11-02T09:15:28;6.38;;;3.60;;
31724;SDS011;18306;40.960;14.836;2022-11-02T09:17:55;6.18;;;3.45;;
31724;SDS011;18306;40.960;14.836;2022-11-02T09:20:22;4.70;;;2.70;;
31724;SDS011;18306;40.960;14.836;2022-11-02T09:22:49;8.23;;;4.50;;
31724;SDS011;18306;40.960;14.836;2022-11-02T09:25:16;10.73;;;3.67;;
31724;SDS011;18306;40.960;14.836;2022-11-02T09:27:43;7.28;;;4.38;;
31724;SDS011;18306;40.960;14.836;2022-11-02T09:30:11;9.27;;;4.45;;
31724;SDS011;18306;40.960;14.836;2022-11-02T09:32:39;8.32;;;4.72;;
31724;SDS011;18306;40.960;14.836;2022-11-02T09:35:07;21.92;;;6.05;;
31724;SDS011;18306;40.960;14.836;2022-11-02T09:37:36;7.45;;;4.03;;
31724;SDS011;18306;40.960;14.836;2022-11-02T09:40:04;13.15;;;6.60;;
31724;SDS011;18306;40.960;14.836;2022-11-02T09:45:20;17.92;;;7.90;;
31724;SDS011;18306;40.960;14.836;2022-11-02T09:47:53;15.60;;;7.95;;
31724;SDS011;18306;40.960;14.836;2022-11-02T09:50:43;11.43;;;6.63;;
31724;SDS011;18306;40.960;14.836;2022-11-02T09:53:13;17.50;;;7.25;;
31724;SDS011;18306;40.960;14.836;2022-11-02T09:55:53;13.60;;;6.78;;
31724;SDS011;18306;40.960;14.836;2022-11-02T09:58:29;16.67;;;8.38;;
31724;SDS011;18306;40.960;14.836;2022-11-02T10:01:04;10.75;;;6.80;;
31724;SDS011;18306;40.960;14.836;2022-11-02T10:06:38;13.18;;;6.93;;
31724;SDS011;18306;40.960;14.836;2022-11-02T10:12:03;17.10;;;6.97;;
31724;SDS011;18306;40.960;14.836;2022-11-02T10:14:54;16.02;;;7.80;;
31724;SDS011;18306;40.960;14.836;2022-11-02T10:17:35;17.50;;;6.63;;
31724;SDS011;18306;40.960;14.836;2022-11-02T10:20:10;14.18;;;6.47;;
31724;SDS011;18306;40.960;14.836;2022-11-02T10:23:03;15.90;;;7.13;;
31724;SDS011;18306;40.960;14.836;2022-11-02T10:25:33;14.43;;;8.15;;
31724;SDS011;18306;40.960;14.836;2022-11-02T10:28:14;10.00;;;6.60;;
31724;SDS011;18306;40.960;14.836;2022-11-02T10:30:44;19.30;;;6.70;;
31724;SDS011;18306;40.960;14.836;2022-11-02T10:33:16;16.65;;;6.45;;
31724;SDS011;18306;40.960;14.836;2022-11-02T10:36:00;15.10;;;7.13;;
31724;SDS011;18306;40.960;14.836;2022-11-02T10:47:41;15.48;;;6.85;;
31724;SDS011;18306;40.960;14.836;2022-11-02T10:53:20;12.27;;;7.90;;
31724;SDS011;18306;40.960;14.836;2022-11-02T10:55:54;21.88;;;9.77;;
31724;SDS011;18306;40.960;14.836;2022-11-02T10:58:33;14.27;;;7.10;;
31724;SDS011;18306;40.960;14.836;2022-11-02T11:01:05;17.30;;;7.32;;
31724;SDS011;18306;40.960;14.836;2022-11-02T11:03:33;12.55;;;5.53;;
31724;SDS011;18306;40.960;14.836;2022-11-02T11:06:22;8.57;;;5.07;;
31724;SDS011;18306;40.960;14.836;2022-11-02T11:08:57;7.10;;;5.22;;
31724;SDS011;18306;40.960;14.836;2022-11-02T11:11:27;15.77;;;5.53;;
31724;SDS011;18306;40.960;14.836;2022-11-02T11:14:05;10.88;;;6.05;;
31724;SDS011;18306;40.960;14.836;2022-11-02T11:16:49;15.95;;;5.70;;
31724;SDS011;18306;40.960;14.836;2022-11-02T11:19:20;14.55;;;5.32;;
31724;SDS011;18306;40.960;14.836;2022-11-02T11:21:51;14.02;;;6.63;;
31724;SDS011;18306;40.960;14.836;2022-11-02T11:24:23;15.48;;;5.93;;
31724;SDS011;18306;40.960;14.836;2022-11-02T11:27:26;30.60;;;6.97;;
31724;SDS011;18306;40.960;14.836;2022-11-02T11:29:57;8.40;;;5.55;;
31724;SDS011;18306;40.960;14.836;2022-11-02T11:32:25;8.55;;;5.57;;
31724;SDS011;18306;40.960;14.836;2022-11-02T11:34:55;6.95;;;4.85;;
31724;SDS011;18306;40.960;14.836;2022-11-02T11:37:31;9.93;;;5.95;;
31724;SDS011;18306;40.960;14.836;2022-11-02T11:40:04;10.38;;;5.65;;
31724;SDS011;18306;40.960;14.836;2022-11-02T11:42:41;9.70;;;6.03;;
31724;SDS011;18306;40.960;14.836;2022-11-02T11:45:28;13.73;;;5.40;;
31724;SDS011;18306;40.960;14.836;2022-11-02T11:53:23;12.77;;;6.15;;
31724;SDS011;18306;40.960;14.836;2022-11-02T11:55:55;10.23;;;6.75;;
31724;SDS011;18306;40.960;14.836;2022-11-02T11:58:28;15.35;;;6.18;;
31724;SDS011;18306;40.960;14.836;2022-11-02T12:01:06;10.65;;;5.43;;
31724;SDS011;18306;40.960;14.836;2022-11-02T12:03:49;10.18;;;6.43;;
31724;SDS011;18306;40.960;14.836;2022-11-02T12:17:25;13.50;;;5.47;;
31724;SDS011;18306;40.960;14.836;2022-11-02T12:28:12;12.23;;;6.20;;
31724;SDS011;18306;40.960;14.836;2022-11-02T12:36:34;11.90;;;5.65;;
31724;SDS011;18306;40.960;14.836;2022-11-02T12:59:04;16.00;;;6.45;;
31724;SDS011;18306;40.960;14.836;2022-11-02T13:01:36;8.93;;;5.78;;
31724;SDS011;18306;40.960;14.836;2022-11-02T13:06:44;7.15;;;5.35;;
31724;SDS011;18306;40.960;14.836;2022-11-02T13:14:45;7.13;;;5.43;;
31724;SDS011;18306;40.960;14.836;2022-11-02T13:20:20;16.58;;;6.50;;
31724;SDS011;18306;40.960;14.836;2022-11-02T13:25:57;12.65;;;6.53;;
31724;SDS011;18306;40.960;14.836;2022-11-02T13:28:30;11.65;;;6.97;;
31724;SDS011;18306;40.960;14.836;2022-11-02T13:31:15;13.27;;;6.38;;
31724;SDS011;18306;40.960;14.836;2022-11-02T13:33:50;18.60;;;6.78;;
31724;SDS011;18306;40.960;14.836;2022-11-02T13:36:19;9.55;;;5.85;;
31724;SDS011;18306;40.960;14.836;2022-11-02T13:47:02;12.95;;;7.82;;
31724;SDS011;18306;40.960;14.836;2022-11-02T13:49:37;17.73;;;8.50;;
31724;SDS011;18306;40.960;14.836;2022-11-02T13:52:12;17.33;;;7.72;;
31724;SDS011;18306;40.960;14.836;2022-11-02T13:54:48;15.98;;;7.30;;
31724;SDS011;18306;40.960;14.836;2022-11-02T14:03:10;10.95;;;6.95;;
31724;SDS011;18306;40.960;14.836;2022-11-02T14:05:56;14.57;;;6.82;;
31724;SDS011;18306;40.960;14.836;2022-11-02T14:08:41;15.88;;;9.07;;
31724;SDS011;18306;40.960;14.836;2022-11-02T14:22:02;14.88;;;8.65;;
31724;SDS011;18306;40.960;14.836;2022-11-02T14:37:50;21.80;;;9.57;;
31724;SDS011;18306;40.960;14.836;2022-11-02T14:40:32;15.82;;;8.88;;
31724;SDS011;18306;40.960;14.836;2022-11-02T14:48:54;26.88;;;11.02;;
31724;SDS011;18306;40.960;14.836;2022-11-02T14:51:24;37.40;;;13.77;;
31724;SDS011;18306;40.960;14.836;2022-11-02T14:53:56;16.58;;;11.32;;
31724;SDS011;18306;40.960;14.836;2022-11-02T14:56:54;29.83;;;11.20;;
31724;SDS011;18306;40.960;14.836;2022-11-02T15:04:54;25.48;;;12.60;;
31724;SDS011;18306;40.960;14.836;2022-11-02T15:12:43;23.70;;;12.63;;
31724;SDS011;18306;40.960;14.836;2022-11-02T15:23:45;24.67;;;12.38;;
31724;SDS011;18306;40.960;14.836;2022-11-02T15:26:46;25.05;;;13.20;;
31724;SDS011;18306;40.960;14.836;2022-11-02T15:29:39;36.72;;;13.90;;
31724;SDS011;18306;40.960;14.836;2022-11-02T15:32:19;27.80;;;14.45;;
31724;SDS011;18306;40.960;14.836;2022-11-02T15:34:49;32.50;;;16.05;;
31724;SDS011;18306;40.960;14.836;2022-11-02T15:37:21;31.50;;;16.08;;
31724;SDS011;18306;40.960;14.836;2022-11-02T15:39:59;26.90;;;14.57;;
31724;SDS011;18306;40.960;14.836;2022-11-02T15:48:24;30.10;;;14.95;;
31724;SDS011;18306;40.960;14.836;2022-11-02T15:50:59;26.17;;;15.52;;
31724;SDS011;18306;40.960;14.836;2022-11-02T16:02:11;23.38;;;14.25;;
31724;SDS011;18306;40.960;14.836;2022-11-02T16:04:49;29.55;;;14.15;;
31724;SDS011;18306;40.960;14.836;2022-11-02T16:07:19;25.55;;;14.48;;
31724;SDS011;18306;40.960;14.836;2022-11-02T16:09:47;33.42;;;16.13;;
31724;SDS011;18306;40.960;14.836;2022-11-02T16:15:09;28.60;;;14.75;;
31724;SDS011;18306;40.960;14.836;2022-11-02T16:17:46;30.75;;;15.57;;
31724;SDS011;18306;40.960;14.836;2022-11-02T16:22:58;31.02;;;14.50;;
31724;SDS011;18306;40.960;14.836;2022-11-02T16:25:40;38.30;;;15.68;;
31724;SDS011;18306;40.960;14.836;2022-11-02T16:28:21;27.23;;;14.38;;
31724;SDS011;18306;40.960;14.836;2022-11-02T16:31:06;22.85;;;13.13;;
31724;SDS011;18306;40.960;14.836;2022-11-02T16:33:48;27.45;;;14.80;;
31724;SDS011;18306;40.960;14.836;2022-11-02T16:36:26;28.27;;;14.68;;
31724;SDS011;18306;40.960;14.836;2022-11-02T16:39:14;24.38;;;14.15;;
31724;SDS011;18306;40.960;14.836;2022-11-02T16:41:52;36.15;;;15.38;;
31724;SDS011;18306;40.960;14.836;2022-11-02T16:44:26;20.83;;;13.63;;
31724;SDS011;18306;40.960;14.836;2022-11-02T16:49:33;32.88;;;15.63;;
31724;SDS011;18306;40.960;14.836;2022-11-02T16:54:59;31.17;;;13.40;;
31724;SDS011;18306;40.960;14.836;2022-11-02T16:57:30;34.97;;;14.90;;
31724;SDS011;18306;40.960;14.836;2022-11-02T17:00:26;26.15;;;12.95;;
31724;SDS011;18306;40.960;14.836;2022-11-02T17:02:54;36.53;;;14.30;;
31724;SDS011;18306;40.960;14.836;2022-11-02T17:05:22;29.95;;;15.63;;
31724;SDS011;18306;40.960;14.836;2022-11-02T17:08:03;24.08;;;15.43;;
31724;SDS011;18306;40.960;14.836;2022-11-02T17:10:36;27.48;;;13.82;;
31724;SDS011;18306;40.960;14.836;2022-11-02T17:13:04;26.80;;;12.60;;
31724;SDS011;18306;40.960;14.836;2022-11-02T17:15:38;23.90;;;13.93;;
31724;SDS011;18306;40.960;14.836;2022-11-02T17:18:21;28.88;;;15.02;;
31724;SDS011;18306;40.960;14.836;2022-11-02T17:23:56;27.65;;;13.30;;
31724;SDS011;18306;40.960;14.836;2022-11-02T17:26:25;24.35;;;15.20;;
31724;SDS011;18306;40.960;14.836;2022-11-02T17:28:58;32.85;;;15.98;;
31724;SDS011;18306;40.960;14.836;2022-11-02T17:31:28;40.03;;;15.93;;
31724;SDS011;18306;40.960;14.836;2022-11-02T17:34:00;35.55;;;15.48;;
31724;SDS011;18306;40.960;14.836;2022-11-02T17:36:43;25.08;;;14.25;;
31724;SDS011;18306;40.960;14.836;2022-11-02T17:39:15;32.67;;;14.95;;
31724;SDS011;18306;40.960;14.836;2022-11-02T17:41:57;26.05;;;14.48;;
31724;SDS011;18306;40.960;14.836;2022-11-02T17:44:49;28.02;;;13.40;;
31724;SDS011;18306;40.960;14.836;2022-11-02T17:47:17;26.35;;;15.02;;
31724;SDS011;18306;40.960;14.836;2022-11-02T17:49:44;32.05;;;17.00;;
31724;SDS011;18306;40.960;14.836;2022-11-02T17:52:12;24.85;;;14.95;;
31724;SDS011;18306;40.960;14.836;2022-11-02T17:54:41;24.52;;;15.30;;
31724;SDS011;18306;40.960;14.836;2022-11-02T17:57:12;19.02;;;12.38;;
31724;SDS011;18306;40.960;14.836;2022-11-02T17:59:39;26.73;;;14.63;;
31724;SDS011;18306;40.960;14.836;2022-11-02T18:02:11;31.63;;;13.80;;
31724;SDS011;18306;40.960;14.836;2022-11-02T18:04:39;28.48;;;14.13;;
31724;SDS011;18306;40.960;14.836;2022-11-02T18:07:06;27.10;;;14.00;;
31724;SDS011;18306;40.960;14.836;2022-11-02T18:09:33;29.33;;;15.98;;
31724;SDS011;18306;40.960;14.836;2022-11-02T18:12:01;27.98;;;15.77;;
31724;SDS011;18306;40.960;14.836;2022-11-02T18:14:28;25.92;;;14.63;;
31724;SDS011;18306;40.960;14.836;2022-11-02T18:16:55;29.33;;;14.38;;
31724;SDS011;18306;40.960;14.836;2022-11-02T18:19:22;38.22;;;19.33;;
31724;SDS011;18306;40.960;14.836;2022-11-02T18:21:49;27.90;;;16.58;;
31724;SDS011;18306;40.960;14.836;2022-11-02T18:24:17;32.40;;;15.30;;
31724;SDS011;18306;40.960;14.836;2022-11-02T18:26:59;31.02;;;15.68;;
31724;SDS011;18306;40.960;14.836;2022-11-02T18:29:32;38.45;;;14.10;;